Time;durP1;ratioP1;P1;durP2;ratioP2;P2;SDS_P1;SDS_P2;PMS_P1;PMS_P2;Temp;Humidity;BMP_temperature;BMP_pressure;BME280_temperature;BME280_humidity;BME280_pressure;Samples;Min_cycle;Max_cycle;Signal;HPM_P1;HPM_P2
2022/01/13 00:00:54;;;;;;;0.57;0.57;;;;;;;;;;1809225;78;26820;-27
2022/01/13 00:03:21;;;;;;;0.40;0.40;;;;;;;;;;1794744;79;26810;-32
2022/01/13 00:05:49;;;;;;;0.40;0.40;;;;;;;;;;1812129;78;26318;-29
2022/01/13 00:08:16;;;;;;;0.40;0.40;;;;;;;;;;1795001;79;26881;-32
2022/01/13 00:10:44;;;;;;;0.40;0.40;;;;;;;;;;1808779;78;26232;-30
2022/01/13 00:13:20;;;;;;;0.50;0.50;;;;;;;;;;1796274;79;26472;-34
2022/01/13 00:15:46;;;;;;;0.20;0.20;;;;;;;;;;1794079;80;26377;-28
2022/01/13 00:18:30;;;;;;;0.50;0.50;;;;;;;;;;1794987;80;26377;-31
2022/01/13 00:23:44;;;;;;;0.50;0.50;;;;;;;;;;1795423;79;26399;-29
2022/01/13 00:26:24;;;;;;;0.30;0.30;;;;;;;;;;1782459;80;26291;-30
2022/01/13 00:28:51;;;;;;;0.40;0.40;;;;;;;;;;1795432;79;26404;-32
2022/01/13 00:31:27;;;;;;;0.40;0.40;;;;;;;;;;1795863;79;26988;-29
2022/01/13 00:33:54;;;;;;;0.30;0.30;;;;;;;;;;1793533;80;26414;-27
2022/01/13 00:36:19;;;;;;;0.40;0.40;;;;;;;;;;1790731;80;26292;-32
2022/01/13 00:38:46;;;;;;;0.30;0.30;;;;;;;;;;1788580;80;26360;-27
2022/01/13 00:41:14;;;;;;;0.42;0.42;;;;;;;;;;1796383;79;26306;-32
2022/01/13 00:43:42;;;;;;;0.30;0.30;;;;;;;;;;1793129;78;26458;-30
2022/01/13 00:46:11;;;;;;;0.30;0.30;;;;;;;;;;1789870;80;26307;-32
2022/01/13 00:48:38;;;;;;;0.55;0.42;;;;;;;;;;1789386;80;26652;-33
2022/01/13 00:51:06;;;;;;;0.40;0.40;;;;;;;;;;1790516;79;26306;-30
2022/01/13 00:53:33;;;;;;;0.47;0.47;;;;;;;;;;1790117;80;26330;-39
2022/01/13 00:56:00;;;;;;;0.42;0.42;;;;;;;;;;1788416;80;26319;-35
2022/01/13 00:58:29;;;;;;;0.35;0.35;;;;;;;;;;1789876;80;26593;-35
2022/01/13 01:00:57;;;;;;;0.50;0.50;;;;;;;;;;1792456;78;26279;-39
2022/01/13 01:03:25;;;;;;;0.30;0.30;;;;;;;;;;1789575;79;26747;-27
2022/01/13 01:05:53;;;;;;;0.42;0.42;;;;;;;;;;1786962;80;26376;-34
2022/01/13 01:08:21;;;;;;;0.40;0.40;;;;;;;;;;1789072;80;26795;-31
2022/01/13 01:10:50;;;;;;;0.33;0.33;;;;;;;;;;1796374;78;26302;-27
2022/01/13 01:13:21;;;;;;;1.10;0.50;;;;;;;;;;1790251;80;26314;-28
2022/01/13 01:15:51;;;;;;;0.50;0.50;;;;;;;;;;1788789;80;26327;-31
2022/01/13 01:21:18;;;;;;;0.70;0.70;;;;;;;;;;1789988;80;26347;-27
2022/01/13 01:23:36;;;;;;;0.28;0.28;;;;;;;;;;1785932;80;26870;-29
2022/01/13 01:26:21;;;;;;;0.33;0.33;;;;;;;;;;1789406;80;26405;-27
2022/01/13 01:28:43;;;;;;;0.50;0.50;;;;;;;;;;1785550;80;26343;-30
2022/01/13 01:31:01;;;;;;;0.30;0.30;;;;;;;;;;1788559;79;26767;-32
2022/01/13 01:33:29;;;;;;;0.40;0.40;;;;;;;;;;1806367;79;26283;-32
2022/01/13 01:35:57;;;;;;;0.30;0.30;;;;;;;;;;1801181;79;26311;-32
2022/01/13 01:38:24;;;;;;;0.30;0.30;;;;;;;;;;1789312;80;26276;-31
2022/01/13 01:40:51;;;;;;;0.20;0.20;;;;;;;;;;1802086;79;26353;-26
2022/01/13 01:43:18;;;;;;;0.23;0.23;;;;;;;;;;1801702;77;26280;-29
2022/01/13 01:45:49;;;;;;;0.70;0.30;;;;;;;;;;1797300;78;26345;-28
2022/01/13 01:48:19;;;;;;;0.50;0.50;;;;;;;;;;1795062;79;26704;-32
2022/01/13 01:50:53;;;;;;;0.40;0.40;;;;;;;;;;1795121;80;26779;-27
2022/01/13 01:53:12;;;;;;;0.40;0.40;;;;;;;;;;1794290;80;26323;-33
2022/01/13 01:55:40;;;;;;;0.42;0.42;;;;;;;;;;1795984;80;26313;-28
2022/01/13 01:58:08;;;;;;;0.45;0.40;;;;;;;;;;1795538;80;26814;-26
2022/01/13 02:00:35;;;;;;;0.37;0.37;;;;;;;;;;1801492;78;26375;-37
2022/01/13 02:03:04;;;;;;;0.60;0.57;;;;;;;;;;1795812;80;26299;-35
2022/01/13 02:05:31;;;;;;;0.50;0.37;;;;;;;;;;1795361;80;26293;-29
2022/01/13 02:07:59;;;;;;;0.40;0.40;;;;;;;;;;1796157;79;26282;-26
2022/01/13 02:10:27;;;;;;;0.45;0.40;;;;;;;;;;1792828;80;26379;-30
2022/01/13 02:13:02;;;;;;;0.40;0.40;;;;;;;;;;1795041;80;26419;-27
2022/01/13 02:15:35;;;;;;;0.65;0.50;;;;;;;;;;1793454;80;26259;-27
2022/01/13 02:17:59;;;;;;;0.40;0.40;;;;;;;;;;1794376;80;26888;-29
2022/01/13 02:20:28;;;;;;;0.30;0.30;;;;;;;;;;1788597;78;26345;-27
2022/01/13 02:22:55;;;;;;;0.40;0.40;;;;;;;;;;1789832;80;26282;-26
2022/01/13 02:25:22;;;;;;;0.35;0.35;;;;;;;;;;1794164;80;26294;-27
2022/01/13 02:27:49;;;;;;;0.50;0.50;;;;;;;;;;1796368;79;26772;-32
2022/01/13 02:30:17;;;;;;;0.40;0.40;;;;;;;;;;1795097;79;26795;-31
2022/01/13 02:32:44;;;;;;;0.40;0.40;;;;;;;;;;1794253;78;26244;-31
2022/01/13 02:35:12;;;;;;;0.30;0.30;;;;;;;;;;1795258;80;26385;-33
2022/01/13 02:37:39;;;;;;;0.25;0.25;;;;;;;;;;1795245;79;26287;-26
2022/01/13 02:40:07;;;;;;;0.60;0.30;;;;;;;;;;1791283;80;26963;-26
2022/01/13 02:42:34;;;;;;;0.50;0.50;;;;;;;;;;1793600;80;26832;-27
2022/01/13 02:45:03;;;;;;;0.33;0.33;;;;;;;;;;1804516;78;26791;-29
2022/01/13 02:47:57;;;;;;;0.40;0.40;;;;;;;;;;1828981;78;26854;-33
2022/01/13 02:50:04;;;;;;;0.30;0.30;;;;;;;;;;1821902;78;26268;-26
2022/01/13 02:52:32;;;;;;;0.20;0.20;;;;;;;;;;1827833;77;27413;-30
2022/01/13 02:54:59;;;;;;;0.30;0.30;;;;;;;;;;1828541;78;26262;-27
2022/01/13 02:57:27;;;;;;;0.50;0.35;;;;;;;;;;1796393;79;26676;-27
2022/01/13 02:59:54;;;;;;;0.28;0.28;;;;;;;;;;1799895;79;26357;-39
2022/01/13 03:02:28;;;;;;;0.40;0.40;;;;;;;;;;1807282;79;26391;-32
2022/01/13 03:04:50;;;;;;;0.40;0.40;;;;;;;;;;1828178;78;26416;-35
2022/01/13 03:07:18;;;;;;;0.40;0.40;;;;;;;;;;1829021;78;26296;-34
2022/01/13 03:09:45;;;;;;;0.47;0.35;;;;;;;;;;1829799;78;26302;-33
2022/01/13 03:12:12;;;;;;;0.40;0.40;;;;;;;;;;1829398;78;26281;-32
2022/01/13 03:14:39;;;;;;;0.45;0.45;;;;;;;;;;1828681;78;26327;-28
2022/01/13 03:17:07;;;;;;;0.50;0.50;;;;;;;;;;1828577;78;26271;-26
2022/01/13 03:19:34;;;;;;;0.42;0.42;;;;;;;;;;1796114;79;26299;-30
2022/01/13 03:22:02;;;;;;;0.40;0.30;;;;;;;;;;1786272;80;27057;-27
2022/01/13 03:24:31;;;;;;;1.20;0.40;;;;;;;;;;1809047;79;26241;-27
2022/01/13 03:27:02;;;;;;;0.50;0.50;;;;;;;;;;1793723;80;26383;-30
2022/01/13 03:29:27;;;;;;;0.30;0.30;;;;;;;;;;1829011;78;26178;-30
2022/01/13 03:31:54;;;;;;;0.85;0.50;;;;;;;;;;1828455;77;26248;-27
2022/01/13 03:34:22;;;;;;;0.30;0.20;;;;;;;;;;1830296;78;26283;-31
2022/01/13 03:36:49;;;;;;;0.28;0.28;;;;;;;;;;1830201;78;26271;-31
2022/01/13 03:39:17;;;;;;;0.50;0.50;;;;;;;;;;1830518;78;26268;-29
2022/01/13 03:41:45;;;;;;;0.42;0.42;;;;;;;;;;1830311;78;26225;-29
2022/01/13 03:44:27;;;;;;;0.47;0.47;;;;;;;;;;1830495;78;26719;-27
2022/01/13 03:46:47;;;;;;;0.45;0.45;;;;;;;;;;1828070;78;25425;-30
2022/01/13 03:49:14;;;;;;;0.28;0.28;;;;;;;;;;1829028;78;26248;-30
2022/01/13 03:51:58;;;;;;;0.30;0.30;;;;;;;;;;1829192;78;26260;-32
2022/01/13 03:54:26;;;;;;;0.40;0.40;;;;;;;;;;1829839;78;26292;-27
2022/01/13 03:57:03;;;;;;;0.35;0.33;;;;;;;;;;1830217;78;26295;-27
2022/01/13 03:59:51;;;;;;;1.15;0.50;;;;;;;;;;1826858;78;26227;-26
2022/01/13 04:02:18;;;;;;;0.40;0.40;;;;;;;;;;1828974;78;26300;-31
2022/01/13 04:04:46;;;;;;;0.42;0.42;;;;;;;;;;1826028;78;26352;-30
2022/01/13 04:07:19;;;;;;;0.40;0.40;;;;;;;;;;1830532;78;26237;-34
2022/01/13 04:09:47;;;;;;;0.40;0.40;;;;;;;;;;1828261;77;26750;-30
2022/01/13 04:12:16;;;;;;;0.37;0.37;;;;;;;;;;1787101;79;26350;-37
2022/01/13 04:17:13;;;;;;;0.30;0.30;;;;;;;;;;1776782;79;26703;-27
2022/01/13 04:19:41;;;;;;;0.28;0.28;;;;;;;;;;1828745;78;26736;-26
2022/01/13 04:22:09;;;;;;;0.45;0.45;;;;;;;;;;1785574;79;26337;-26
2022/01/13 04:24:38;;;;;;;0.65;0.40;;;;;;;;;;1830024;78;26707;-29
2022/01/13 04:27:08;;;;;;;0.40;0.40;;;;;;;;;;1829857;78;26305;-26
2022/01/13 04:29:41;;;;;;;0.50;0.50;;;;;;;;;;1829567;78;26373;-28
2022/01/13 04:32:08;;;;;;;0.30;0.30;;;;;;;;;;1829507;78;26383;-31
2022/01/13 04:34:35;;;;;;;0.40;0.40;;;;;;;;;;1829716;78;26251;-26
2022/01/13 04:37:03;;;;;;;0.42;0.42;;;;;;;;;;1829524;78;26863;-27
2022/01/13 04:39:32;;;;;;;0.30;0.30;;;;;;;;;;1820690;78;26245;-31
2022/01/13 04:41:59;;;;;;;0.62;0.40;;;;;;;;;;1822697;78;26323;-36
2022/01/13 04:44:27;;;;;;;0.30;0.30;;;;;;;;;;1830106;78;26721;-33
2022/01/13 04:46:55;;;;;;;0.30;0.30;;;;;;;;;;1822474;78;26359;-28
2022/01/13 04:49:22;;;;;;;0.60;0.60;;;;;;;;;;1820319;79;26222;-31
2022/01/13 04:51:51;;;;;;;0.30;0.30;;;;;;;;;;1820009;78;26177;-27
2022/01/13 04:54:18;;;;;;;0.35;0.35;;;;;;;;;;1819675;79;26213;-32
2022/01/13 04:59:18;;;;;;;0.53;0.50;;;;;;;;;;1820109;78;26286;-32
2022/01/13 05:01:45;;;;;;;1.22;0.40;;;;;;;;;;1822874;78;26321;-27
2022/01/13 05:04:13;;;;;;;0.40;0.30;;;;;;;;;;1819301;79;26313;-29
2022/01/13 05:06:40;;;;;;;0.50;0.50;;;;;;;;;;1820803;79;26253;-36
2022/01/13 05:09:07;;;;;;;0.35;0.35;;;;;;;;;;1816130;78;26241;-36
2022/01/13 05:11:35;;;;;;;0.40;0.35;;;;;;;;;;1820787;79;26254;-33
2022/01/13 05:14:02;;;;;;;0.35;0.35;;;;;;;;;;1820256;79;26784;-31
2022/01/13 05:16:38;;;;;;;0.33;0.33;;;;;;;;;;1820603;78;26273;-31
2022/01/13 05:22:15;;;;;;;0.35;0.35;;;;;;;;;;1819142;79;26308;-26
2022/01/13 05:24:15;;;;;;;0.40;0.40;;;;;;;;;;1814713;79;26243;-26
2022/01/13 05:26:42;;;;;;;0.60;0.30;;;;;;;;;;1820727;79;26308;-28
2022/01/13 05:29:12;;;;;;;1.85;0.68;;;;;;;;;;1820643;78;26225;-31
2022/01/13 05:31:38;;;;;;;1.20;0.40;;;;;;;;;;1820265;78;26557;-31
2022/01/13 05:34:05;;;;;;;0.50;0.50;;;;;;;;;;1820741;79;26287;-29
2022/01/13 05:36:32;;;;;;;0.75;0.50;;;;;;;;;;1819228;78;26233;-27
2022/01/13 05:39:00;;;;;;;0.30;0.30;;;;;;;;;;1820679;79;26311;-39
2022/01/13 05:41:28;;;;;;;0.62;0.42;;;;;;;;;;1809506;78;26173;-29
2022/01/13 05:43:55;;;;;;;2.00;0.50;;;;;;;;;;1820602;78;26198;-29
2022/01/13 05:46:22;;;;;;;3.05;0.40;;;;;;;;;;1824732;78;26359;-32
2022/01/13 05:48:49;;;;;;;0.78;0.45;;;;;;;;;;1829433;78;26300;-30
2022/01/13 05:51:17;;;;;;;2.27;0.50;;;;;;;;;;1828678;78;26222;-34
2022/01/13 05:53:45;;;;;;;1.95;0.40;;;;;;;;;;1829274;78;26290;-27
2022/01/13 05:56:12;;;;;;;0.60;0.45;;;;;;;;;;1829773;78;26824;-31
2022/01/13 05:58:40;;;;;;;0.35;0.35;;;;;;;;;;1828580;78;26379;-35
2022/01/13 06:01:07;;;;;;;2.52;0.78;;;;;;;;;;1820087;77;26249;-34
2022/01/13 06:03:34;;;;;;;3.30;0.40;;;;;;;;;;1829435;77;25687;-29
2022/01/13 06:06:02;;;;;;;5.83;0.55;;;;;;;;;;1826359;77;26755;-27
2022/01/13 06:08:29;;;;;;;1.32;0.40;;;;;;;;;;1830072;78;26340;-30
2022/01/13 06:10:57;;;;;;;0.85;0.47;;;;;;;;;;1828551;77;26237;-31
2022/01/13 06:13:24;;;;;;;2.90;0.42;;;;;;;;;;1829993;77;26355;-29
2022/01/13 06:15:51;;;;;;;1.17;0.50;;;;;;;;;;1828742;78;26241;-29
2022/01/13 06:18:18;;;;;;;3.75;0.82;;;;;;;;;;1829625;78;26308;-31
2022/01/13 06:20:46;;;;;;;1.10;0.40;;;;;;;;;;1828014;78;26333;-27
2022/01/13 06:23:15;;;;;;;1.62;0.55;;;;;;;;;;1812334;79;26259;-31
2022/01/13 06:25:42;;;;;;;1.85;0.60;;;;;;;;;;1799611;79;26832;-28
2022/01/13 06:28:09;;;;;;;0.20;0.20;;;;;;;;;;1828121;77;26781;-26
2022/01/13 06:30:37;;;;;;;0.40;0.40;;;;;;;;;;1812602;79;26230;-27
2022/01/13 06:33:04;;;;;;;0.40;0.35;;;;;;;;;;1828595;78;26261;-29
2022/01/13 06:35:32;;;;;;;0.60;0.40;;;;;;;;;;1829535;78;26687;-27
2022/01/13 06:37:59;;;;;;;0.60;0.47;;;;;;;;;;1829158;77;26379;-27
2022/01/13 06:40:26;;;;;;;1.02;0.40;;;;;;;;;;1817592;78;26682;-31
2022/01/13 06:42:54;;;;;;;0.42;0.40;;;;;;;;;;1827066;78;26316;-27
2022/01/13 06:45:21;;;;;;;1.57;0.50;;;;;;;;;;1812391;79;26647;-34
2022/01/13 06:47:49;;;;;;;1.17;0.40;;;;;;;;;;1829342;78;26290;-26
2022/01/13 06:50:19;;;;;;;7.22;1.45;;;;;;;;;;1830302;78;26340;-28
2022/01/13 06:52:47;;;;;;;0.98;0.40;;;;;;;;;;1797056;79;26852;-30
2022/01/13 06:55:15;;;;;;;0.40;0.40;;;;;;;;;;1800782;78;26266;-26
2022/01/13 06:57:42;;;;;;;0.30;0.30;;;;;;;;;;1788737;78;26410;-27
2022/01/13 07:00:10;;;;;;;1.35;0.30;;;;;;;;;;1827921;78;26218;-32
2022/01/13 07:02:38;;;;;;;0.40;0.40;;;;;;;;;;1800836;78;26733;-27
2022/01/13 07:05:05;;;;;;;0.60;0.40;;;;;;;;;;1795952;80;26292;-35
2022/01/13 07:07:34;;;;;;;0.40;0.40;;;;;;;;;;1827064;78;26783;-28
2022/01/13 07:10:02;;;;;;;0.40;0.40;;;;;;;;;;1828211;78;26748;-27
2022/01/13 07:12:29;;;;;;;0.68;0.40;;;;;;;;;;1795374;79;26273;-30
2022/01/13 07:14:57;;;;;;;0.60;0.45;;;;;;;;;;1798894;80;26410;-36
2022/01/13 07:17:25;;;;;;;0.55;0.55;;;;;;;;;;1830338;78;26299;-29
2022/01/13 07:19:53;;;;;;;0.50;0.50;;;;;;;;;;1824993;78;26297;-35
2022/01/13 07:22:20;;;;;;;0.45;0.45;;;;;;;;;;1820112;78;26720;-34
2022/01/13 07:24:48;;;;;;;0.70;0.70;;;;;;;;;;1799917;79;26355;-33
2022/01/13 07:27:15;;;;;;;0.82;0.65;;;;;;;;;;1813535;79;26186;-27
2022/01/13 07:29:45;;;;;;;0.68;0.68;;;;;;;;;;1829626;78;26756;-26
2022/01/13 07:32:13;;;;;;;0.53;0.53;;;;;;;;;;1803507;79;26299;-25
2022/01/13 07:34:40;;;;;;;0.80;0.80;;;;;;;;;;1801238;79;26780;-34
2022/01/13 07:37:08;;;;;;;0.82;0.62;;;;;;;;;;1795713;79;26682;-26
2022/01/13 07:39:38;;;;;;;0.80;0.80;;;;;;;;;;1789998;80;26289;-28
2022/01/13 07:42:06;;;;;;;0.80;0.80;;;;;;;;;;1795616;79;26244;-30
2022/01/13 07:44:33;;;;;;;0.60;0.60;;;;;;;;;;1798229;79;26291;-29
2022/01/13 07:47:01;;;;;;;0.60;0.60;;;;;;;;;;1796827;79;26343;-26
2022/01/13 07:49:29;;;;;;;0.75;0.75;;;;;;;;;;1848727;77;26272;-34
2022/01/13 07:51:56;;;;;;;0.78;0.72;;;;;;;;;;1848940;76;26379;-27
2022/01/13 07:54:30;;;;;;;0.60;0.60;;;;;;;;;;1848194;77;26689;-32
2022/01/13 07:56:52;;;;;;;0.65;0.65;;;;;;;;;;1847053;77;26509;-29
2022/01/13 07:59:20;;;;;;;0.50;0.50;;;;;;;;;;1848141;76;26401;-27
2022/01/13 08:01:47;;;;;;;0.57;0.57;;;;;;;;;;1849865;77;26252;-26
2022/01/13 08:04:17;;;;;;;0.60;0.60;;;;;;;;;;1848529;77;26352;-31
2022/01/13 08:06:43;;;;;;;0.50;0.50;;;;;;;;;;1848029;77;26273;-30
2022/01/13 08:09:11;;;;;;;0.70;0.70;;;;;;;;;;1847566;76;26308;-28
2022/01/13 08:11:38;;;;;;;0.60;0.60;;;;;;;;;;1847711;77;26206;-28
2022/01/13 08:14:06;;;;;;;0.60;0.60;;;;;;;;;;1848624;77;26234;-26
2022/01/13 08:16:35;;;;;;;0.70;0.70;;;;;;;;;;1845731;76;26276;-29
2022/01/13 08:21:48;;;;;;;0.75;0.60;;;;;;;;;;1860658;76;26698;-28
2022/01/13 08:24:15;;;;;;;0.60;0.60;;;;;;;;;;1848387;77;26709;-29
2022/01/13 08:26:43;;;;;;;0.70;0.70;;;;;;;;;;1847786;77;26862;-27
2022/01/13 08:29:10;;;;;;;0.50;0.50;;;;;;;;;;1849193;77;26813;-26
2022/01/13 08:31:37;;;;;;;0.50;0.50;;;;;;;;;;1849023;77;26282;-32
2022/01/13 08:34:06;;;;;;;0.50;0.50;;;;;;;;;;1848194;77;26216;-26
2022/01/13 08:36:33;;;;;;;0.60;0.60;;;;;;;;;;1849155;77;26281;-34
2022/01/13 08:39:01;;;;;;;0.50;0.50;;;;;;;;;;1856386;77;26862;-32
2022/01/13 08:41:29;;;;;;;0.50;0.50;;;;;;;;;;1847330;77;26642;-28
2022/01/13 08:43:56;;;;;;;0.55;0.55;;;;;;;;;;1842998;77;26630;-27
2022/01/13 08:46:25;;;;;;;1.65;0.40;;;;;;;;;;1848926;77;26241;-33
2022/01/13 08:48:52;;;;;;;0.60;0.60;;;;;;;;;;1848387;76;26320;-27
2022/01/13 08:51:20;;;;;;;0.50;0.50;;;;;;;;;;1848692;77;25631;-27
2022/01/13 08:53:48;;;;;;;0.40;0.40;;;;;;;;;;1847652;77;26223;-27
2022/01/13 08:56:16;;;;;;;0.70;0.65;;;;;;;;;;1848248;77;26264;-27
2022/01/13 08:58:47;;;;;;;0.50;0.50;;;;;;;;;;1847573;77;26296;-29
2022/01/13 09:01:14;;;;;;;0.40;0.40;;;;;;;;;;1845036;76;26312;-34
2022/01/13 09:03:41;;;;;;;0.45;0.45;;;;;;;;;;1840815;77;26644;-36
2022/01/13 09:06:09;;;;;;;0.50;0.50;;;;;;;;;;1841920;76;26682;-31
2022/01/13 09:08:36;;;;;;;0.68;0.68;;;;;;;;;;1849085;77;26411;-29
2022/01/13 09:11:03;;;;;;;0.50;0.50;;;;;;;;;;1848144;76;26260;-33
2022/01/13 09:13:36;;;;;;;0.40;0.40;;;;;;;;;;1848766;76;26688;-29
2022/01/13 09:16:00;;;;;;;0.42;0.42;;;;;;;;;;1848119;77;26258;-29
2022/01/13 09:18:48;;;;;;;0.30;0.30;;;;;;;;;;1848994;77;26828;-32
2022/01/13 09:21:03;;;;;;;0.47;0.40;;;;;;;;;;1846811;77;27091;-30
2022/01/13 09:23:35;;;;;;;0.50;0.50;;;;;;;;;;1849945;77;26357;-30
2022/01/13 09:25:59;;;;;;;0.40;0.40;;;;;;;;;;1847175;77;26629;-28
2022/01/13 09:28:26;;;;;;;0.40;0.40;;;;;;;;;;1849020;77;26353;-29
2022/01/13 09:30:54;;;;;;;0.65;0.65;;;;;;;;;;1849170;77;26246;-37
2022/01/13 09:33:21;;;;;;;0.45;0.45;;;;;;;;;;1829247;77;26267;-29
2022/01/13 09:35:48;;;;;;;0.40;0.40;;;;;;;;;;1846368;76;26748;-29
2022/01/13 09:38:16;;;;;;;0.40;0.40;;;;;;;;;;1855935;77;26344;-28
2022/01/13 09:40:45;;;;;;;0.47;0.40;;;;;;;;;;1847450;76;26566;-31
2022/01/13 09:43:13;;;;;;;0.45;0.45;;;;;;;;;;1848142;76;26297;-26
2022/01/13 09:45:40;;;;;;;0.35;0.35;;;;;;;;;;1848998;77;26253;-27
2022/01/13 09:48:08;;;;;;;0.40;0.40;;;;;;;;;;1849709;76;26299;-30
2022/01/13 09:50:36;;;;;;;0.40;0.40;;;;;;;;;;1854041;77;26274;-33
2022/01/13 09:53:03;;;;;;;0.40;0.40;;;;;;;;;;1855194;77;26247;-33
2022/01/13 09:55:31;;;;;;;0.40;0.40;;;;;;;;;;1835726;77;26274;-33
2022/01/13 09:58:01;;;;;;;0.55;0.55;;;;;;;;;;1856214;77;26323;-36
2022/01/13 10:00:27;;;;;;;0.30;0.30;;;;;;;;;;1843385;77;26860;-28
2022/01/13 10:02:54;;;;;;;0.30;0.30;;;;;;;;;;1849539;77;26271;-29
2022/01/13 10:05:23;;;;;;;0.35;0.33;;;;;;;;;;1863303;77;26204;-30
2022/01/13 10:07:51;;;;;;;0.50;0.50;;;;;;;;;;1855617;76;26316;-36
2022/01/13 10:10:20;;;;;;;0.30;0.30;;;;;;;;;;1840722;77;26295;-30
2022/01/13 10:12:48;;;;;;;0.40;0.40;;;;;;;;;;1840763;77;26799;-27
2022/01/13 10:18:03;;;;;;;0.35;0.35;;;;;;;;;;1854963;77;26311;-30
2022/01/13 10:20:31;;;;;;;0.40;0.40;;;;;;;;;;1854638;76;26242;-39
2022/01/13 10:23:08;;;;;;;0.40;0.40;;;;;;;;;;1852360;77;26345;-39
2022/01/13 10:25:37;;;;;;;0.28;0.28;;;;;;;;;;1853984;77;26262;-28
2022/01/13 10:28:17;;;;;;;0.40;0.40;;;;;;;;;;1855383;76;26246;-29
2022/01/13 10:30:46;;;;;;;0.40;0.40;;;;;;;;;;1853550;76;26279;-28
2022/01/13 10:33:18;;;;;;;0.70;0.68;;;;;;;;;;1854879;77;26746;-29
2022/01/13 10:35:46;;;;;;;0.53;0.35;;;;;;;;;;1851781;76;26286;-37
2022/01/13 10:38:16;;;;;;;0.45;0.33;;;;;;;;;;1847835;76;26259;-33
2022/01/13 10:40:43;;;;;;;0.40;0.40;;;;;;;;;;1852837;76;26332;-29
2022/01/13 10:43:10;;;;;;;0.30;0.30;;;;;;;;;;1843958;76;26742;-30
2022/01/13 10:45:39;;;;;;;0.25;0.25;;;;;;;;;;1851488;76;26711;-28
2022/01/13 10:48:14;;;;;;;0.30;0.30;;;;;;;;;;1845782;76;26403;-32
2022/01/13 10:50:42;;;;;;;0.50;0.50;;;;;;;;;;1839671;76;26291;-32
2022/01/13 10:53:11;;;;;;;0.33;0.33;;;;;;;;;;1840276;78;26702;-29
2022/01/13 10:55:40;;;;;;;0.30;0.30;;;;;;;;;;1839979;78;26225;-34
2022/01/13 10:58:07;;;;;;;0.33;0.33;;;;;;;;;;1843583;76;26788;-30
2022/01/13 11:00:35;;;;;;;0.40;0.40;;;;;;;;;;1842280;77;27027;-31
2022/01/13 11:03:04;;;;;;;0.40;0.40;;;;;;;;;;1835100;77;26221;-29
2022/01/13 11:05:33;;;;;;;0.55;0.30;;;;;;;;;;1846830;77;26219;-34
2022/01/13 11:08:02;;;;;;;0.40;0.40;;;;;;;;;;1855614;77;26285;-28
2022/01/13 11:10:29;;;;;;;0.40;0.37;;;;;;;;;;1840651;77;26862;-30
2022/01/13 11:12:59;;;;;;;0.40;0.40;;;;;;;;;;1833735;78;27614;-29
2022/01/13 11:15:27;;;;;;;0.30;0.30;;;;;;;;;;1836230;78;26810;-37
2022/01/13 11:17:55;;;;;;;0.50;0.50;;;;;;;;;;1843441;77;26371;-29
2022/01/13 11:20:22;;;;;;;0.30;0.30;;;;;;;;;;1837271;78;26295;-33
2022/01/13 11:22:51;;;;;;;0.37;0.37;;;;;;;;;;1853638;76;26290;-29
2022/01/13 11:25:23;;;;;;;0.30;0.30;;;;;;;;;;1855482;77;26287;-30
2022/01/13 11:27:49;;;;;;;0.37;0.37;;;;;;;;;;1854910;77;26342;-26
2022/01/13 11:30:21;;;;;;;0.50;0.45;;;;;;;;;;1855248;77;26278;-29
2022/01/13 11:32:48;;;;;;;0.47;0.47;;;;;;;;;;1855173;77;26283;-29
2022/01/13 11:35:17;;;;;;;0.40;0.40;;;;;;;;;;1819633;77;26299;-29
2022/01/13 11:37:45;;;;;;;0.33;0.33;;;;;;;;;;1816643;78;26808;-33
2022/01/13 11:40:14;;;;;;;0.45;0.30;;;;;;;;;;1822397;77;26264;-32
2022/01/13 11:42:46;;;;;;;0.28;0.28;;;;;;;;;;1838373;77;26217;-29
2022/01/13 11:45:15;;;;;;;0.90;0.40;;;;;;;;;;1848685;77;26296;-29
2022/01/13 11:47:43;;;;;;;0.37;0.37;;;;;;;;;;1846567;77;26820;-36
2022/01/13 11:50:24;;;;;;;0.40;0.40;;;;;;;;;;1838511;77;26297;-30
2022/01/13 11:52:51;;;;;;;0.60;0.60;;;;;;;;;;1847323;76;26364;-33
2022/01/13 11:55:26;;;;;;;0.40;0.40;;;;;;;;;;1848212;77;26754;-30
2022/01/13 11:58:13;;;;;;;0.50;0.50;;;;;;;;;;1830544;77;26294;-30
2022/01/13 12:00:42;;;;;;;0.42;0.40;;;;;;;;;;1850235;76;26196;-26
2022/01/13 12:03:22;;;;;;;0.72;0.50;;;;;;;;;;1851321;76;26324;-28
2022/01/13 12:05:49;;;;;;;0.50;0.50;;;;;;;;;;1840155;77;26244;-27
2022/01/13 12:08:36;;;;;;;0.60;0.60;;;;;;;;;;1848206;76;26803;-28
2022/01/13 12:11:04;;;;;;;0.45;0.45;;;;;;;;;;1845735;77;26713;-27
2022/01/13 12:13:35;;;;;;;0.33;0.33;;;;;;;;;;1837209;77;26366;-32
2022/01/13 12:16:04;;;;;;;0.55;0.55;;;;;;;;;;1842351;76;26895;-30
2022/01/13 12:18:45;;;;;;;0.40;0.40;;;;;;;;;;1841612;76;26260;-29
2022/01/13 12:21:27;;;;;;;0.70;0.53;;;;;;;;;;1851475;77;26183;-29
2022/01/13 12:23:56;;;;;;;0.50;0.50;;;;;;;;;;1842072;77;26330;-31
2022/01/13 12:26:37;;;;;;;0.60;0.60;;;;;;;;;;1844494;76;26288;-37
2022/01/13 12:29:12;;;;;;;0.40;0.40;;;;;;;;;;1847441;76;26736;-27
2022/01/13 12:31:54;;;;;;;0.45;0.45;;;;;;;;;;1849314;76;26632;-30
2022/01/13 12:34:22;;;;;;;0.72;0.30;;;;;;;;;;1836840;76;26279;-27
2022/01/13 12:36:50;;;;;;;0.25;0.25;;;;;;;;;;1838425;76;26248;-30
2022/01/13 12:39:18;;;;;;;0.47;0.47;;;;;;;;;;1839312;76;26296;-31
2022/01/13 12:41:58;;;;;;;0.45;0.45;;;;;;;;;;1849538;77;26234;-27
2022/01/13 12:47:10;;;;;;;0.50;0.50;;;;;;;;;;1847367;76;26233;-26
2022/01/13 12:49:38;;;;;;;0.40;0.40;;;;;;;;;;1839161;77;26352;-30
2022/01/13 12:52:06;;;;;;;0.65;0.47;;;;;;;;;;1817501;79;26278;-27
2022/01/13 12:54:34;;;;;;;0.50;0.50;;;;;;;;;;1813479;78;26313;-30
2022/01/13 12:57:03;;;;;;;0.50;0.50;;;;;;;;;;1801558;79;26291;-32
2022/01/13 12:59:32;;;;;;;0.45;0.45;;;;;;;;;;1807266;77;26807;-32
2022/01/13 13:02:00;;;;;;;0.53;0.53;;;;;;;;;;1802553;77;26412;-27
2022/01/13 13:04:30;;;;;;;0.42;0.42;;;;;;;;;;1812614;77;26766;-33
2022/01/13 13:06:59;;;;;;;0.53;0.50;;;;;;;;;;1819403;77;26580;-29
2022/01/13 13:09:28;;;;;;;0.30;0.30;;;;;;;;;;1817947;79;26615;-29
2022/01/13 13:11:58;;;;;;;0.40;0.40;;;;;;;;;;1817580;79;26830;-27
2022/01/13 13:14:34;;;;;;;1.07;0.50;;;;;;;;;;1802256;79;26337;-34
2022/01/13 13:17:01;;;;;;;0.37;0.37;;;;;;;;;;1814055;79;26338;-29
2022/01/13 13:19:30;;;;;;;0.42;0.42;;;;;;;;;;1832323;77;26270;-36
2022/01/13 13:21:57;;;;;;;0.30;0.30;;;;;;;;;;1809227;79;26242;-27
2022/01/13 13:24:25;;;;;;;0.50;0.50;;;;;;;;;;1817861;79;26239;-27
2022/01/13 13:26:52;;;;;;;0.40;0.40;;;;;;;;;;1810046;79;26360;-26
2022/01/13 13:29:23;;;;;;;0.40;0.40;;;;;;;;;;1811676;79;26833;-29
2022/01/13 13:31:52;;;;;;;0.30;0.30;;;;;;;;;;1811005;78;26360;-26
2022/01/13 13:34:19;;;;;;;0.42;0.40;;;;;;;;;;1811585;79;26854;-29
2022/01/13 13:36:51;;;;;;;0.37;0.37;;;;;;;;;;1816725;79;26263;-31
2022/01/13 13:39:23;;;;;;;0.47;0.47;;;;;;;;;;1774738;79;26316;-27
2022/01/13 13:41:51;;;;;;;0.40;0.40;;;;;;;;;;1816017;79;26360;-35
2022/01/13 13:44:20;;;;;;;0.50;0.50;;;;;;;;;;1813768;79;26330;-29
2022/01/13 13:46:48;;;;;;;0.62;0.37;;;;;;;;;;1817983;79;26703;-36
2022/01/13 13:49:17;;;;;;;0.20;0.20;;;;;;;;;;1818321;79;26271;-28
2022/01/13 13:51:46;;;;;;;0.40;0.40;;;;;;;;;;1849258;77;26361;-28
2022/01/13 13:54:29;;;;;;;0.50;0.50;;;;;;;;;;1847936;77;26306;-26
2022/01/13 13:56:59;;;;;;;0.30;0.30;;;;;;;;;;1849121;77;26284;-26
2022/01/13 13:59:28;;;;;;;0.37;0.37;;;;;;;;;;1841102;77;26299;-28
2022/01/13 14:01:57;;;;;;;0.30;0.30;;;;;;;;;;1839797;76;26301;-26
2022/01/13 14:04:32;;;;;;;0.35;0.35;;;;;;;;;;1844808;76;26381;-36
2022/01/13 14:06:59;;;;;;;0.30;0.30;;;;;;;;;;1847250;77;26268;-34
2022/01/13 14:09:37;;;;;;;0.57;0.40;;;;;;;;;;1847456;77;26194;-29
2022/01/13 14:12:06;;;;;;;0.28;0.28;;;;;;;;;;1849189;77;26634;-27
2022/01/13 14:14:38;;;;;;;0.40;0.40;;;;;;;;;;1848859;77;26343;-36
2022/01/13 14:17:06;;;;;;;0.30;0.30;;;;;;;;;;1849183;77;26743;-32
2022/01/13 14:19:33;;;;;;;0.42;0.40;;;;;;;;;;1849283;77;26287;-32
2022/01/13 14:22:02;;;;;;;0.42;0.30;;;;;;;;;;1863749;76;27362;-34
2022/01/13 14:24:34;;;;;;;0.40;0.40;;;;;;;;;;1875399;76;26744;-31
2022/01/13 14:27:05;;;;;;;0.28;0.28;;;;;;;;;;1875689;76;26315;-29
2022/01/13 14:29:32;;;;;;;0.30;0.30;;;;;;;;;;1875722;76;26351;-29
2022/01/13 14:32:16;;;;;;;0.30;0.30;;;;;;;;;;1875833;76;26261;-32
2022/01/13 14:34:44;;;;;;;0.40;0.40;;;;;;;;;;1847501;76;26306;-28
2022/01/13 14:37:11;;;;;;;0.30;0.30;;;;;;;;;;1842567;78;26284;-27
2022/01/13 14:39:40;;;;;;;0.25;0.25;;;;;;;;;;1842243;77;26284;-35
2022/01/13 14:42:15;;;;;;;0.30;0.30;;;;;;;;;;1866702;77;26351;-29
2022/01/13 14:44:42;;;;;;;0.35;0.35;;;;;;;;;;1862820;77;26215;-30
2022/01/13 14:47:09;;;;;;;0.28;0.28;;;;;;;;;;1866507;77;26705;-27
2022/01/13 14:49:38;;;;;;;0.40;0.40;;;;;;;;;;1866576;77;26201;-31
2022/01/13 14:52:06;;;;;;;0.20;0.20;;;;;;;;;;1866678;77;26399;-27
2022/01/13 14:54:35;;;;;;;0.47;0.40;;;;;;;;;;1828163;77;26365;-31
2022/01/13 14:57:06;;;;;;;0.23;0.23;;;;;;;;;;1809548;79;26294;-27
2022/01/13 14:59:31;;;;;;;0.40;0.40;;;;;;;;;;1817851;77;26298;-33
2022/01/13 15:01:59;;;;;;;0.37;0.30;;;;;;;;;;1840971;77;26361;-34
2022/01/13 15:04:26;;;;;;;0.23;0.23;;;;;;;;;;1846685;77;26290;-33
2022/01/13 15:06:54;;;;;;;0.40;0.30;;;;;;;;;;1855411;77;26349;-27
2022/01/13 15:09:21;;;;;;;0.53;0.35;;;;;;;;;;1850977;77;26369;-32
2022/01/13 15:11:49;;;;;;;0.30;0.30;;;;;;;;;;1841652;77;26335;-39
2022/01/13 15:14:17;;;;;;;0.55;0.28;;;;;;;;;;1847857;76;26413;-31